Language: 


Des rapports , des résumés tant et plus, au choix de chacun....


Données statistiques de la station
Quotidien Rapport Mars 6, 2017 Unités:  Anglais    Métrique   les deux
« Précédent Jour
Suivant Jour »
Quotidien Hebdomadaire Mensuel Annuel Actuel
  Haut: Bas: Moyen:
Température: 53.8 °F 42.4 °F 45.7 °F
Pt de rosée: 44.8 °F 37.9 °F 41.5 °F
Humidité: 98 % 63 % 86 %
Vitesse du vent: 19 mph 0 mph 6 mph
Rafales: 25.9 mph - -
Vent:- - West
Pression: 29.8 in 0 in -
Précipitation: 0.1 in    
Historical Graphs
 
 
Données statistiques pour Mars 6, 2017
Heure Température Point de rosée Pression Vent Vitesse du vent Refales Humidité Pluie (taux horaire)
00:04 44.2 °F 43.5 °F 29.4 in WSW 8.7 mph 9.8 mph 98 % 0.01 in
00:09 44.2 °F 43.9 °F 29.4 in West 8.7 mph 10.1 mph 98 % 0.01 in
00:14 44.4 °F 44.1 °F 29.4 in West 8.7 mph 11.2 mph 98 % 0.03 in
00:19 44.8 °F 44.2 °F 29.4 in WSW 7.8 mph 11.2 mph 98 % 0.03 in
00:24 45 °F 44.2 °F 29.4 in WSW 9.8 mph 12.5 mph 98 % 0.03 in
00:29 45 °F 44.2 °F 29.4 in WSW 8.5 mph 13 mph 98 % 0.03 in
00:34 45 °F 44.2 °F 29.4 in West 10.5 mph 13.2 mph 98 % 0.01 in
00:39 45.1 °F 44.4 °F 29.4 in WSW 11 mph 14.8 mph 98 % 0.01 in
00:44 45.1 °F 44.4 °F 29.4 in West 7.8 mph 17.4 mph 98 % 0.01 in
00:49 45.1 °F 44.2 °F 29.4 in West 19 mph 19 mph 97 % 0.02 in
00:54 45 °F 44.1 °F 29.4 in West 13.2 mph 19 mph 97 % 0.03 in
00:59 45.1 °F 44.2 °F 29.4 in WSW 8.5 mph 19 mph 97 % 0.03 in
01:04 45 °F 44.1 °F 29.4 in WSW 10.7 mph 13.9 mph 97 % 0.03 in
01:09 45 °F 44.1 °F 29.4 in WSW 11.9 mph 12.8 mph 97 % 0.03 in
01:14 44.8 °F 43.9 °F 29.4 in WSW 15.4 mph 15.4 mph 97 % 0.02 in
01:19 44.8 °F 43.9 °F 29.4 in WSW 15.2 mph 16.1 mph 97 % 0.02 in
01:24 44.4 °F 43.7 °F 29.4 in West 18.1 mph 19.5 mph 97 % 0.03 in
01:29 44.4 °F 43.7 °F 29.4 in WSW 13.9 mph 19.5 mph 97 % 0.03 in
01:34 44.4 °F 43.7 °F 29.4 in WSW 13.2 mph 19.2 mph 97 % 0.03 in
01:39 44.4 °F 43.7 °F 29.4 in WSW 15.7 mph 17.4 mph 97 % 0.03 in
01:44 44.4 °F 43.7 °F 29.4 in West 11.9 mph 24.6 mph 97 % 0.04 in
01:49 44.2 °F 43.5 °F 29.4 in West 10.1 mph 24.6 mph 97 % 0.03 in
01:54 44.2 °F 43.5 °F 29.4 in West 10.3 mph 14.5 mph 97 % 0.03 in
01:59 44.2 °F 43.5 °F 29.4 in WSW 11.9 mph 15.2 mph 97 % 0.03 in
02:04 44.2 °F 43.5 °F 29.4 in West 11 mph 15.4 mph 97 % 0.04 in
02:09 44.2 °F 43.5 °F 29.4 in West 13 mph 15.4 mph 97 % 0.04 in
02:14 44.2 °F 43.5 °F 29.4 in WSW 10.1 mph 16.8 mph 97 % 0.04 in
02:19 44.2 °F 43.5 °F 29.4 in WSW 13.2 mph 16.8 mph 97 % 0.04 in
02:24 44.2 °F 43.3 °F 29.4 in West 8.7 mph 13.6 mph 97 % 0.03 in
02:29 44.2 °F 43.3 °F 29.4 in West 8.1 mph 13.2 mph 97 % 0.03 in
02:35 44.2 °F 43.3 °F 29.4 in West 9.8 mph 13.6 mph 97 % 0.03 in
02:40 44.2 °F 43.3 °F 29.4 in West 10.5 mph 13.6 mph 97 % 0.03 in
02:45 44.2 °F 43.3 °F 29.4 in West 7.6 mph 13.2 mph 97 % 0.01 in
02:50 44.2 °F 43.3 °F 29.4 in West 7.4 mph 15.7 mph 97 % 0.01 in
02:55 44.2 °F 43.3 °F 29.4 in West 11.9 mph 15.7 mph 97 % 0.01 in
03:00 44.2 °F 43.3 °F 29.4 in West 7.6 mph 18.1 mph 97 % 0.01 in
03:06 44.2 °F 43.2 °F 0 in WNW 11 mph 18.1 mph 96 % 0 in
03:11 44.1 °F 43 °F 29.4 in West 5.8 mph 15.2 mph 96 % 0 in
03:16 44.1 °F 42.6 °F 29.4 in NW 9.2 mph 25.9 mph 95 % 0 in
03:21 43.5 °F 42.3 °F 29.4 in WNW 13.4 mph 25.9 mph 95 % 0 in
03:26 43.5 °F 42.3 °F 29.5 in WNW 12.5 mph 13.4 mph 95 % 0 in
03:31 43.5 °F 42.1 °F 29.5 in West 10.1 mph 13.4 mph 95 % 0 in
03:36 43.3 °F 42.1 °F 29.5 in West 3.1 mph 12.5 mph 95 % 0 in
03:41 43.3 °F 42.1 °F 29.5 in WSW 6 mph 12.1 mph 95 % 0.01 in
03:46 43.3 °F 42.1 °F 29.5 in WNW 10.3 mph 15.2 mph 95 % 0.01 in
03:51 43.2 °F 41.7 °F 29.5 in WSW 7.8 mph 15.2 mph 95 % 0.01 in
03:52 43.2 °F 41.7 °F 29.5 in WSW 3.8 mph 15.2 mph 95 % 0.01 in
03:57 43 °F 41.5 °F 29.5 in WSW 6 mph 13 mph 95 % 0.01 in
04:02 43 °F 41.5 °F 29.5 in WNW 6.7 mph 15.2 mph 95 % 0.01 in
04:07 42.8 °F 41.7 °F 29.5 in SSW 7.8 mph 15.2 mph 96 % 0.01 in
04:12 42.8 °F 41.7 °F 29.5 in West 11.9 mph 17.7 mph 96 % 0.01 in
04:17 42.8 °F 41.7 °F 29.5 in WSW 8.1 mph 17.7 mph 96 % 0.01 in
04:22 42.8 °F 41.7 °F 29.5 in West 12.5 mph 14.5 mph 96 % 0.01 in
04:27 42.8 °F 41.7 °F 29.5 in ESE 4.7 mph 14.5 mph 96 % 0.01 in
04:32 42.6 °F 41.5 °F 29.5 in WSW 12.1 mph 14.5 mph 96 % 0.01 in
04:37 42.6 °F 41.5 °F 29.5 in WSW 5.4 mph 12.5 mph 96 % 0.01 in
04:42 42.6 °F 41.5 °F 29.5 in West 7.6 mph 12.1 mph 96 % 0 in
04:47 42.6 °F 41.5 °F 29.5 in WSW 6.5 mph 8.7 mph 96 % 0 in
04:52 42.6 °F 41.7 °F 29.5 in West 5.4 mph 10.3 mph 97 % 0 in
04:57 42.6 °F 41.7 °F 29.5 in WSW 9.8 mph 10.3 mph 97 % 0 in
05:02 42.4 °F 41.5 °F 29.5 in WSW 7.2 mph 9.8 mph 97 % 0 in
05:07 42.4 °F 41.5 °F 29.5 in West 3.8 mph 8.7 mph 97 % 0 in
05:12 42.4 °F 41.9 °F 29.5 in WSW 3.8 mph 8.7 mph 98 % 0 in
05:17 42.4 °F 41.9 °F 29.5 in WSW 5.4 mph 7.8 mph 98 % 0.01 in
05:22 42.4 °F 41.9 °F 29.5 in Calm   7.2 mph 98 % 0.01 in
05:27 42.4 °F 41.9 °F 29.5 in Calm   7.2 mph 98 % 0.01 in
05:32 42.4 °F 41.9 °F 29.5 in WNW 2 mph 4.3 mph 98 % 0.01 in
05:37 42.4 °F 41.9 °F 29.5 in Calm   2.2 mph 98 % 0.01 in
05:42 42.4 °F 41.9 °F 29.5 in NW 5.4 mph 5.4 mph 98 % 0.01 in
05:47 42.4 °F 41.9 °F 29.5 in WSW 2.7 mph 7.6 mph 98 % 0.01 in
05:52 42.6 °F 42.1 °F 29.5 in West 5.4 mph 10.5 mph 98 % 0.01 in
05:57 42.8 °F 42.3 °F 29.5 in WSW 4 mph 10.5 mph 98 % 0.01 in
06:02 42.8 °F 42.3 °F 29.5 in West 7.8 mph 12.1 mph 98 % 0.01 in
06:07 43 °F 42.4 °F 29.5 in WSW 10.1 mph 13.9 mph 98 % 0.01 in
06:12 43.2 °F 42.6 °F 29.5 in West 7.8 mph 13.9 mph 98 % 0.01 in
06:17 43.3 °F 42.8 °F 29.5 in West 7.8 mph 14.1 mph 98 % 0 in
06:22 43.3 °F 42.8 °F 29.5 in WNW 10.1 mph 18.1 mph 98 % 0 in
06:27 43.3 °F 42.8 °F 29.5 in WSW 10.7 mph 18.1 mph 98 % 0 in
06:32 43.3 °F 42.4 °F 29.5 in West 10.7 mph 15.2 mph 97 % 0 in
06:37 43.3 °F 42.3 °F 29.5 in West 10.3 mph 15.2 mph 96 % 0 in
06:42 43.3 °F 42.3 °F 29.5 in West 12.5 mph 15.2 mph 96 % 0 in
06:47 43.3 °F 42.1 °F 29.5 in WSW 12.1 mph 18.1 mph 95 % 0 in
06:52 43.5 °F 42.1 °F 29.5 in West 11 mph 18.1 mph 95 % 0 in
06:57 43.5 °F 42.1 °F 29.5 in West 10.3 mph 12.8 mph 95 % 0 in
07:02 43.5 °F 42.1 °F 29.5 in WNW 9.6 mph 12.5 mph 95 % 0 in
07:07 43.5 °F 42.1 °F 29.5 in West 13 mph 13 mph 95 % 0 in
07:12 43.5 °F 41.9 °F 29.5 in West 9.8 mph 13 mph 94 % 0 in
07:17 43.5 °F 41.9 °F 29.5 in WSW 10.3 mph 13.2 mph 94 % 0 in
07:22 43.5 °F 41.9 °F 29.5 in WSW 15.2 mph 15.4 mph 94 % 0 in
07:27 43.5 °F 41.9 °F 29.5 in WSW 13.4 mph 15.4 mph 94 % 0 in
07:32 43.5 °F 41.5 °F 29.5 in West 13 mph 15.2 mph 93 % 0 in
07:37 43.5 °F 41.7 °F 29.5 in WSW 8.1 mph 13.6 mph 93 % 0 in
07:42 43.5 °F 41.5 °F 29.5 in WSW 10.1 mph 13 mph 93 % 0 in
07:47 43.5 °F 41.5 °F 29.5 in West 9.8 mph 17 mph 92 % 0 in
07:52 43.5 °F 41.5 °F 29.5 in West 10.5 mph 17 mph 92 % 0 in
07:57 43.5 °F 41.4 °F 29.5 in WSW 5.8 mph 12.3 mph 92 % 0 in
08:02 43.5 °F 41.4 °F 29.5 in West 8.1 mph 10.7 mph 92 % 0 in
08:07 43.5 °F 41.4 °F 29.5 in West 5.4 mph 9.8 mph 92 % 0 in
08:12 43.3 °F 41.2 °F 29.5 in West 4.7 mph 9.8 mph 92 % 0 in
08:17 43.3 °F 41.2 °F 29.5 in West 6 mph 8.1 mph 92 % 0 in
08:22 43.3 °F 41.2 °F 29.5 in WSW 6 mph 8.5 mph 92 % 0 in
08:27 43.3 °F 41.2 °F 29.5 in WSW 6.3 mph 8.5 mph 92 % 0 in
08:32 43.5 °F 41.7 °F 29.5 in West 5.4 mph 7.2 mph 93 % 0 in
08:37 43.9 °F 41.9 °F 29.5 in WSW 6.5 mph 8.1 mph 93 % 0 in
08:42 43.5 °F 41.5 °F 29.5 in WSW 6 mph 8.1 mph 92 % 0 in
08:47 44.1 °F 41.7 °F 29.5 in WSW 4.3 mph 7.8 mph 92 % 0 in
08:52 44.4 °F 42.3 °F 29.5 in West 6.5 mph 10.3 mph 92 % 0 in
08:57 44.2 °F 42.3 °F 29.5 in West 7.8 mph 10.3 mph 92 % 0 in
09:02 44.8 °F 42.3 °F 29.5 in WSW 6 mph 9.2 mph 91 % 0 in
09:07 45.1 °F 42.6 °F 29.5 in WSW 7.6 mph 10.5 mph 91 % 0 in
09:12 45.1 °F 42.8 °F 29.5 in West 7.6 mph 10.5 mph 91 % 0 in
09:17 45.3 °F 42.6 °F 29.5 in WSW 10.7 mph 10.7 mph 90 % 0 in
09:22 45.1 °F 42.3 °F 29.5 in West 10.3 mph 10.7 mph 89 % 0 in
09:27 45.1 °F 41.9 °F 29.5 in WSW 8.1 mph 10.3 mph 88 % 0 in
09:32 45.1 °F 41.9 °F 29.5 in WSW 5.4 mph 10.3 mph 88 % 0 in
09:37 45.3 °F 42.4 °F 29.5 in WSW 2.9 mph 8.1 mph 89 % 0 in
09:43 45.7 °F 42.4 °F 29.5 in WSW 6.7 mph 8.1 mph 89 % 0 in
09:48 45.7 °F 42.4 °F 29.5 in West 5.4 mph 8.7 mph 89 % 0 in
09:53 45.9 °F 42.6 °F 29.5 in WSW 7.6 mph 8.7 mph 89 % 0 in
09:58 45.9 °F 42.6 °F 29.5 in West 6.9 mph 8.5 mph 89 % 0 in
10:03 45.9 °F 42.4 °F 29.5 in WSW 5.4 mph 10.1 mph 88 % 0 in
10:08 45.7 °F 41.9 °F 29.5 in West 10.3 mph 10.3 mph 87 % 0 in
10:13 45.7 °F 41.9 °F 29.5 in West 8.1 mph 10.3 mph 87 % 0 in
10:18 45.7 °F 41.5 °F 29.5 in WSW 9.8 mph 10.3 mph 86 % 0 in
10:23 45.9 °F 41.7 °F 29.5 in WSW 6.5 mph 9.8 mph 86 % 0 in
10:28 45.9 °F 42.3 °F 29.5 in West 8.5 mph 11 mph 87 % 0 in
10:33 46 °F 42.3 °F 29.5 in WSW 6 mph 11 mph 86 % 0 in
10:38 46 °F 42.3 °F 29.5 in WSW 8.1 mph 8.7 mph 86 % 0 in
10:43 46 °F 42.3 °F 29.5 in WSW 8.7 mph 9.8 mph 86 % 0 in
10:48 46 °F 42.3 °F 29.5 in WSW 8.1 mph 9.8 mph 86 % 0 in
10:53 46 °F 41.9 °F 29.5 in WSW 3.8 mph 9.8 mph 85 % 0 in
10:58 46.2 °F 42.1 °F 29.5 in West 8.5 mph 9.8 mph 85 % 0 in
11:03 46.2 °F 42.1 °F 29.5 in WSW 8.5 mph 9.4 mph 85 % 0 in
11:08 46.6 °F 42.3 °F 29.5 in WSW 9.8 mph 10.5 mph 85 % 0 in
11:13 46.8 °F 42.4 °F 29.5 in WSW 7.6 mph 10.5 mph 85 % 0 in
11:18 46.8 °F 42.3 °F 29.5 in West 8.1 mph 11 mph 84 % 0 in
11:23 46.9 °F 42.4 °F 29.5 in WSW 8.1 mph 11 mph 84 % 0 in
11:28 47.1 °F 42.3 °F 29.5 in West 9.2 mph 12.1 mph 83 % 0 in
11:33 47.3 °F 42.4 °F 29.5 in West 7.6 mph 12.1 mph 83 % 0 in
11:37 47.5 °F 42.3 °F 29.5 in West 5.4 mph 10.3 mph 82 % 0 in
11:43 47.8 °F 42.6 °F 29.5 in WSW 6.3 mph 10.3 mph 82 % 0 in
11:48 48.4 °F 42.8 °F 29.5 in West 5.8 mph 10.5 mph 81 % 0 in
11:53 48.4 °F 42.4 °F 29.5 in West 2.9 mph 10.5 mph 80 % 0 in
11:58 48.4 °F 42.3 °F 29.5 in WNW 5.4 mph 9.6 mph 79 % 0 in
12:03 48.2 °F 41.7 °F 29.5 in West 6.3 mph 10.1 mph 78 % 0 in
12:08 48 °F 41.5 °F 29.5 in West 5.6 mph 10.1 mph 78 % 0 in
12:13 48.2 °F 42.1 °F 29.5 in NW 4.3 mph 7.4 mph 79 % 0 in
12:18 48.9 °F 43 °F 29.5 in WNW 5.8 mph 8.5 mph 80 % 0 in
12:23 50.4 °F 44.8 °F 29.5 in West 3.8 mph 8.7 mph 81 % 0 in
12:28 50 °F 43.2 °F 29.5 in WNW 2.9 mph 8.7 mph 77 % 0 in
12:33 49.5 °F 41.9 °F 29.5 in WNW 6.3 mph 9.8 mph 75 % 0 in
12:38 49.5 °F 42.3 °F 29.6 in North 6.5 mph 9.8 mph 76 % 0 in
12:43 50.9 °F 43.5 °F 29.6 in SSW 4.3 mph 8.7 mph 76 % 0 in
12:48 50.4 °F 41.4 °F 29.6 in West 7.4 mph 11 mph 71 % 0 in
12:53 50 °F 41.4 °F 29.6 in NE 2.9 mph 11 mph 72 % 0 in
12:58 50.9 °F 42.3 °F 29.6 in West 0.9 mph 7.6 mph 72 % 0 in
13:03 52.2 °F 44.1 °F 29.6 in NE 7.2 mph 7.4 mph 74 % 0 in
13:08 52.5 °F 43.5 °F 29.6 in West 10.7 mph 11.4 mph 71 % 0 in
13:13 52.3 °F 42.8 °F 29.6 in WNW 5.6 mph 11.4 mph 70 % 0 in
13:18 51.8 °F 41.9 °F 29.6 in WSW 5.4 mph 8.5 mph 69 % 0 in
13:23 52 °F 42.1 °F 29.6 in WNW 8.1 mph 10.3 mph 69 % 0 in
13:28 51.4 °F 41.2 °F 29.6 in NW 5.4 mph 10.5 mph 68 % 0 in
13:33 50.9 °F 40.3 °F 29.6 in NW 6.3 mph 10.5 mph 67 % 0 in
13:38 50.5 °F 40.3 °F 29.6 in WNW 2.9 mph 9.4 mph 68 % 0 in
13:43 50.7 °F 41.4 °F 29.6 in NW 0.9 mph 9.4 mph 70 % 0 in
13:48 51.3 °F 41.7 °F 29.6 in North 6.3 mph 7.8 mph 70 % 0 in
13:53 52.5 °F 42.6 °F 29.6 in NNW 6.3 mph 10.1 mph 69 % 0 in
13:58 53.2 °F 42.6 °F 29.6 in NNW 6.5 mph 11.2 mph 67 % 0 in
14:03 52.5 °F 41 °F 29.6 in North 6.7 mph 12.3 mph 65 % 0 in
14:08 52.2 °F 40.3 °F 29.6 in North 0.9 mph 12.3 mph 64 % 0 in
14:13 53.1 °F 41.9 °F 29.6 in West 1.3 mph 11.4 mph 66 % 0 in
14:18 53.8 °F 41.7 °F 29.6 in WNW 7.8 mph 10.7 mph 64 % 0 in
14:23 53.2 °F 41.2 °F 29.6 in NW 9.6 mph 10.7 mph 63 % 0 in
14:28 52.2 °F 41.2 °F 29.6 in North 8.5 mph 10.7 mph 66 % 0 in
14:33 51.6 °F 40.6 °F 29.6 in North 5.8 mph 13 mph 66 % 0 in
14:38 51.1 °F 40.5 °F 29.6 in North 6 mph 13 mph 67 % 0 in
14:43 50.2 °F 39.9 °F 29.6 in West 7.2 mph 14.1 mph 68 % 0 in
14:45 50 °F 39.7 °F 29.6 in NNW 7.8 mph 14.1 mph 68 % 0 in
14:50 49.8 °F 39.9 °F 29.6 in NNW 7.6 mph 11.9 mph 69 % 0 in
14:55 49.8 °F 40.5 °F 29.6 in North 6 mph 11 mph 70 % 0 in
15:00 49.3 °F 40.3 °F 29.6 in NNW 7.6 mph 13 mph 71 % 0 in
15:05 48.9 °F 40.3 °F 29.6 in NNW 5.8 mph 13 mph 72 % 0 in
15:10 48.6 °F 40.3 °F 29.6 in West 5.8 mph 8.9 mph 73 % 0 in
15:15 48.2 °F 40.3 °F 29.6 in NNW 7.6 mph 8.9 mph 74 % 0 in
15:20 48.6 °F 41 °F 29.6 in Calm   11 mph 75 % 0 in
15:25 48.4 °F 40.8 °F 29.6 in NNW 5.6 mph 11 mph 75 % 0 in
15:30 48.4 °F 40.8 °F 29.6 in North 7.4 mph 9.6 mph 75 % 0 in
15:35 49.6 °F 42.4 °F 29.6 in NW 6.3 mph 10.5 mph 76 % 0 in
15:40 49.5 °F 41.9 °F 29.6 in North 3.6 mph 10.5 mph 75 % 0 in
15:45 49.3 °F 41.7 °F 29.6 in WNW 4.7 mph 10.5 mph 75 % 0 in
15:50 49.1 °F 41.5 °F 29.6 in North 3.4 mph 9.6 mph 75 % 0 in
15:55 48.7 °F 40.8 °F 29.6 in North 3.1 mph 10.3 mph 74 % 0 in
16:00 48.6 °F 40.6 °F 29.6 in NW 6.3 mph 10.3 mph 74 % 0 in
16:05 48.6 °F 40.3 °F 29.6 in NW 7.6 mph 10.1 mph 73 % 0 in
16:10 48.9 °F 40.6 °F 29.6 in NNW 5.4 mph 10.1 mph 73 % 0 in
16:15 49.1 °F 40.8 °F 29.6 in NW 8.7 mph 10.7 mph 73 % 0 in
16:20 48.9 °F 40.6 °F 29.6 in NNW 7.8 mph 13 mph 73 % 0 in
16:25 48.6 °F 40.3 °F 29.6 in West 3.8 mph 13 mph 73 % 0 in
16:30 49.1 °F 41.2 °F 29.6 in NW 4.9 mph 8.7 mph 74 % 0 in
16:35 49.6 °F 41.4 °F 29.6 in NNW 0.9 mph 9.6 mph 73 % 0 in
16:40 49.6 °F 41.4 °F 29.6 in WNW 4.9 mph 10.1 mph 73 % 0 in
16:45 49.8 °F 41.2 °F 29.6 in Calm   10.1 mph 72 % 0 in
16:50 49.8 °F 41.2 °F 29.6 in North 3.1 mph 9.6 mph 72 % 0 in
16:55 49.1 °F 40.1 °F 29.7 in NW 6.7 mph 11.2 mph 71 % 0 in
17:00 48.6 °F 39.2 °F 29.7 in North 2.5 mph 11.2 mph 70 % 0 in
17:01 48.6 °F 39.2 °F 29.7 in NNW 4.3 mph 11.2 mph 70 % 0 in
17:06 48.7 °F 39.7 °F 29.7 in WNW 3.4 mph 8.5 mph 71 % 0 in
17:11 48.7 °F 40.1 °F 29.7 in North 5.8 mph 8.1 mph 72 % 0 in
17:16 48.9 °F 40.3 °F 29.7 in North 3.4 mph 11 mph 72 % 0 in
17:21 49.1 °F 40.1 °F 29.7 in North 3.6 mph 11 mph 71 % 0 in
17:26 48.7 °F 39.7 °F 29.7 in NNW 2.7 mph 11 mph 71 % 0 in
17:31 48.4 °F 39.7 °F 29.7 in Calm   6.5 mph 72 % 0 in
17:36 48.2 °F 39.6 °F 29.7 in North 4.9 mph 6.7 mph 72 % 0 in
17:41 48.2 °F 39.6 °F 29.7 in West 3.4 mph 7.2 mph 72 % 0 in
17:46 48 °F 39.7 °F 29.7 in WNW 1.6 mph 7.2 mph 73 % 0 in
17:51 47.8 °F 39.6 °F 29.7 in West 3.4 mph 10.3 mph 73 % 0 in
17:56 47.8 °F 39.9 °F 29.7 in West 7.8 mph 13 mph 74 % 0 in
18:01 47.7 °F 39.6 °F 29.7 in WSW 7.6 mph 13 mph 73 % 0 in
18:06 47.1 °F 39 °F 29.7 in West 6 mph 10.7 mph 73 % 0 in
18:11 46.9 °F 38.8 °F 29.7 in West 9.6 mph 10.5 mph 73 % 0 in
18:16 46.8 °F 38.7 °F 29.7 in WSW 4 mph 10.5 mph 73 % 0 in
18:21 46.6 °F 38.5 °F 29.7 in WNW 4 mph 8.7 mph 73 % 0 in
18:26 46.6 °F 38.3 °F 29.7 in WNW 2.9 mph 8.7 mph 73 % 0 in
18:31 46 °F 37.9 °F 29.7 in West 2.2 mph 6.3 mph 73 % 0 in
18:36 46 °F 38.3 °F 29.7 in NNW 3.1 mph 6.3 mph 74 % 0 in
18:41 46 °F 38.3 °F 29.7 in WNW 4.9 mph 6.3 mph 74 % 0 in
18:46 45.9 °F 38.5 °F 29.7 in West 5.4 mph 6.9 mph 75 % 0 in
18:51 45.9 °F 38.8 °F 29.7 in Calm   8.1 mph 76 % 0 in
18:56 45.9 °F 39 °F 29.7 in WNW 4.3 mph 8.1 mph 77 % 0 in
19:01 45.7 °F 39 °F 29.7 in NW 3.6 mph 6.5 mph 78 % 0 in
19:06 45.7 °F 39.4 °F 29.7 in West 4.7 mph 8.7 mph 79 % 0 in
19:11 45.3 °F 39.6 °F 29.7 in West 4.9 mph 8.7 mph 80 % 0 in
19:16 45.1 °F 39.7 °F 29.7 in West 3.8 mph 7.4 mph 81 % 0 in
19:21 45.1 °F 39.9 °F 29.7 in WSW 2.9 mph 6.9 mph 82 % 0 in
19:26 45 °F 39.9 °F 29.7 in West 2 mph 6.5 mph 83 % 0 in
19:31 45 °F 39.9 °F 29.7 in Calm   6.3 mph 83 % 0 in
19:36 44.4 °F 39.7 °F 29.7 in West 2 mph 5.6 mph 83 % 0 in
19:41 44.4 °F 39.9 °F 29.7 in West 3.6 mph 5.6 mph 84 % 0 in
19:46 44.2 °F 40.1 °F 29.7 in Calm   4.9 mph 85 % 0 in
19:51 44.2 °F 40.1 °F 29.7 in West 2.9 mph 4.9 mph 85 % 0 in
19:56 44.2 °F 40.3 °F 29.7 in Calm   4.9 mph 86 % 0 in
20:01 44.2 °F 40.3 °F 29.7 in Calm   4.7 mph 86 % 0 in
20:06 44.1 °F 40.5 °F 29.7 in Calm   4.3 mph 87 % 0 in
20:11 44.1 °F 40.5 °F 29.7 in Calm   5.6 mph 87 % 0 in
20:16 44.1 °F 40.5 °F 29.7 in Calm   5.6 mph 87 % 0 in
20:21 44.1 °F 40.5 °F 29.7 in Calm   3.6 mph 87 % 0 in
20:26 44.1 °F 40.6 °F 29.8 in WSW 4 mph 4 mph 88 % 0 in
20:31 44.2 °F 40.8 °F 29.8 in West 2.5 mph 4 mph 88 % 0 in
20:36 44.2 °F 40.8 °F 29.8 in Calm   4.3 mph 88 % 0 in
20:41 44.2 °F 40.8 °F 29.8 in Calm   4.3 mph 88 % 0 in
20:46 44.2 °F 41 °F 29.8 in West 0.9 mph 4.3 mph 88 % 0 in
20:51 44.4 °F 41.5 °F 29.8 in North 0.9 mph 6 mph 89 % 0 in
20:56 45 °F 42.1 °F 29.8 in WNW 3.1 mph 8.7 mph 90 % 0.01 in
21:01 45 °F 41.7 °F 29.8 in WNW 7.2 mph 8.7 mph 89 % 0.01 in
21:06 45 °F 41.7 °F 29.8 in West 3.8 mph 7.2 mph 89 % 0.01 in
21:11 45 °F 41.7 °F 29.8 in WSW 1.1 mph 7.2 mph 89 % 0.01 in
21:16 45 °F 41.7 °F 29.8 in Calm   4.7 mph 89 % 0.01 in
21:21 45 °F 41.7 °F 29.8 in Calm   5.6 mph 89 % 0.01 in
21:26 44.8 °F 41.7 °F 29.8 in Calm   5.6 mph 89 % 0.01 in
21:31 44.4 °F 41.5 °F 29.8 in Calm   4 mph 89 % 0.01 in
21:36 44.4 °F 41.5 °F 29.8 in North 4.9 mph 5.8 mph 89 % 0.01 in
21:41 44.2 °F 41.4 °F 29.8 in West 2.5 mph 5.8 mph 89 % 0.01 in
21:46 44.2 °F 41.4 °F 29.8 in West 3.1 mph 4.9 mph 89 % 0.01 in
21:51 44.2 °F 41.2 °F 29.8 in West 2 mph 4.3 mph 89 % 0.01 in
21:57 44.1 °F 41 °F 29.8 in Calm   4.3 mph 89 % 0 in
22:02 43.5 °F 40.3 °F 29.8 in Calm   4.3 mph 88 % 0 in
22:07 43.5 °F 40.1 °F 29.8 in Calm     88 % 0 in
22:12 43.3 °F 40.3 °F 29.8 in WSW 2.9 mph 2.9 mph 89 % 0 in
22:17 43.2 °F 40.1 °F 29.8 in WSW 4.3 mph 4.7 mph 89 % 0 in
22:22 43.2 °F 40.1 °F 29.8 in Calm   4.7 mph 89 % 0 in
22:27 43.2 °F 40.5 °F 29.8 in West 1.3 mph 3.8 mph 90 % 0 in
22:32 43.3 °F 40.6 °F 29.8 in West 4.3 mph 6 mph 90 % 0 in
22:37 43.3 °F 40.8 °F 29.8 in Calm   6 mph 91 % 0 in
22:42 43.3 °F 40.8 °F 29.8 in Calm   4.5 mph 91 % 0 in
22:44 43.3 °F 40.8 °F 29.8 in Calm   3.8 mph 91 % 0 in
22:49 43.3 °F 40.8 °F 29.8 in West 2.2 mph 3.8 mph 91 % 0 in
22:54 43.5 °F 41.4 °F 29.8 in WNW 2 mph 3.8 mph 92 % 0 in
22:59 43.5 °F 41.5 °F 29.8 in North 2 mph 4.7 mph 92 % 0 in
23:05 43.9 °F 41.4 °F 29.8 in Calm   4.7 mph 91 % 0 in
23:10 44.1 °F 41.5 °F 29.8 in Calm   2.5 mph 91 % 0 in
23:15 44.1 °F 41.4 °F 29.8 in Calm   1.3 mph 90 % 0 in
23:20 44.1 °F 41.4 °F 29.8 in Calm   2.7 mph 90 % 0 in
23:25 44.1 °F 41.4 °F 29.8 in Calm   2.7 mph 90 % 0 in
23:30 44.1 °F 41.4 °F 29.8 in Calm   1.6 mph 90 % 0 in
23:35 43.9 °F 40.8 °F 29.8 in Calm   1.6 mph 89 % 0 in
23:40 43.9 °F 40.8 °F 29.8 in Calm     89 % 0 in
23:45 43.5 °F 40.8 °F 29.8 in Calm     90 % 0 in
23:50 43.5 °F 40.6 °F 29.8 in Calm     90 % 0 in
23:55 43.5 °F 40.6 °F 29.8 in Calm     90 % 0 in
Le Gheer Warneton
Courtoisie de Weather Underground - 2.25 mb

Mise a jour : 17-12-17 08:50:15
Généré par Cumulus 1.9.4 (1099)